sensor_id;sensor_type;location;lat;lon;timestamp;P1;durP1;ratioP1;P2;durP2;ratioP2
55589;SDS011;41452;42.780;23.116;2023-04-28T00:00:47;4.38;;;2.45;;
55589;SDS011;41452;42.780;23.116;2023-04-28T00:03:13;3.67;;;2.25;;
55589;SDS011;41452;42.780;23.116;2023-04-28T00:05:39;5.78;;;2.50;;
55589;SDS011;41452;42.780;23.116;2023-04-28T00:08:05;6.38;;;2.97;;
55589;SDS011;41452;42.780;23.116;2023-04-28T00:10:30;6.03;;;2.97;;
55589;SDS011;41452;42.780;23.116;2023-04-28T00:12:56;8.45;;;3.17;;
55589;SDS011;41452;42.780;23.116;2023-04-28T00:15:21;8.88;;;3.35;;
55589;SDS011;41452;42.780;23.116;2023-04-28T00:17:47;6.60;;;3.33;;
55589;SDS011;41452;42.780;23.116;2023-04-28T00:20:12;3.70;;;2.17;;
55589;SDS011;41452;42.780;23.116;2023-04-28T00:22:37;4.07;;;2.67;;
55589;SDS011;41452;42.780;23.116;2023-04-28T00:25:03;5.85;;;2.22;;
55589;SDS011;41452;42.780;23.116;2023-04-28T00:27:29;6.13;;;2.50;;
55589;SDS011;41452;42.780;23.116;2023-04-28T00:29:57;4.25;;;2.20;;
55589;SDS011;41452;42.780;23.116;2023-04-28T00:32:22;3.83;;;2.20;;
55589;SDS011;41452;42.780;23.116;2023-04-28T00:34:47;4.35;;;2.83;;
55589;SDS011;41452;42.780;23.116;2023-04-28T00:37:13;9.10;;;2.70;;
55589;SDS011;41452;42.780;23.116;2023-04-28T00:39:38;7.38;;;2.55;;
55589;SDS011;41452;42.780;23.116;2023-04-28T00:42:05;4.28;;;2.40;;
55589;SDS011;41452;42.780;23.116;2023-04-28T00:44:31;5.35;;;2.45;;
55589;SDS011;41452;42.780;23.116;2023-04-28T00:46:57;4.00;;;2.25;;
55589;SDS011;41452;42.780;23.116;2023-04-28T00:49:23;5.38;;;2.60;;
55589;SDS011;41452;42.780;23.116;2023-04-28T00:51:50;6.78;;;2.75;;
55589;SDS011;41452;42.780;23.116;2023-04-28T00:54:15;4.75;;;2.67;;
55589;SDS011;41452;42.780;23.116;2023-04-28T00:56:41;4.65;;;2.92;;
55589;SDS011;41452;42.780;23.116;2023-04-28T00:59:07;3.13;;;2.50;;
55589;SDS011;41452;42.780;23.116;2023-04-28T01:01:33;3.75;;;2.58;;
55589;SDS011;41452;42.780;23.116;2023-04-28T01:04:00;5.63;;;2.25;;
55589;SDS011;41452;42.780;23.116;2023-04-28T01:06:26;4.45;;;2.58;;
55589;SDS011;41452;42.780;23.116;2023-04-28T01:08:52;4.80;;;2.28;;
55589;SDS011;41452;42.780;23.116;2023-04-28T01:11:18;3.35;;;2.00;;
55589;SDS011;41452;42.780;23.116;2023-04-28T01:13:44;4.25;;;2.25;;
55589;SDS011;41452;42.780;23.116;2023-04-28T01:16:09;5.47;;;2.80;;
55589;SDS011;41452;42.780;23.116;2023-04-28T01:18:35;9.32;;;2.45;;
55589;SDS011;41452;42.780;23.116;2023-04-28T01:21:00;6.32;;;3.08;;
55589;SDS011;41452;42.780;23.116;2023-04-28T01:23:28;6.78;;;2.63;;
55589;SDS011;41452;42.780;23.116;2023-04-28T01:25:53;3.90;;;2.20;;
55589;SDS011;41452;42.780;23.116;2023-04-28T01:28:19;8.93;;;2.42;;
55589;SDS011;41452;42.780;23.116;2023-04-28T01:30:44;3.25;;;2.30;;
55589;SDS011;41452;42.780;23.116;2023-04-28T01:33:10;3.80;;;2.72;;
55589;SDS011;41452;42.780;23.116;2023-04-28T01:35:35;4.53;;;2.60;;
55589;SDS011;41452;42.780;23.116;2023-04-28T01:38:01;7.32;;;2.92;;
55589;SDS011;41452;42.780;23.116;2023-04-28T01:40:26;5.65;;;2.15;;
55589;SDS011;41452;42.780;23.116;2023-04-28T01:42:52;3.03;;;2.20;;
55589;SDS011;41452;42.780;23.116;2023-04-28T01:45:17;4.13;;;2.47;;
55589;SDS011;41452;42.780;23.116;2023-04-28T01:47:42;4.68;;;2.83;;
55589;SDS011;41452;42.780;23.116;2023-04-28T01:50:08;4.05;;;2.20;;
55589;SDS011;41452;42.780;23.116;2023-04-28T01:52:33;6.10;;;2.53;;
55589;SDS011;41452;42.780;23.116;2023-04-28T01:54:59;5.95;;;2.72;;
55589;SDS011;41452;42.780;23.116;2023-04-28T01:57:24;6.43;;;2.05;;
55589;SDS011;41452;42.780;23.116;2023-04-28T01:59:50;7.72;;;2.53;;
55589;SDS011;41452;42.780;23.116;2023-04-28T02:02:16;3.78;;;2.05;;
55589;SDS011;41452;42.780;23.116;2023-04-28T02:04:41;5.20;;;2.55;;
55589;SDS011;41452;42.780;23.116;2023-04-28T02:07:06;5.45;;;2.50;;
55589;SDS011;41452;42.780;23.116;2023-04-28T02:09:32;4.25;;;2.47;;
55589;SDS011;41452;42.780;23.116;2023-04-28T02:11:58;4.50;;;2.50;;
55589;SDS011;41452;42.780;23.116;2023-04-28T02:14:24;3.42;;;2.13;;
55589;SDS011;41452;42.780;23.116;2023-04-28T02:16:49;6.38;;;2.70;;
55589;SDS011;41452;42.780;23.116;2023-04-28T02:19:15;4.25;;;2.40;;
55589;SDS011;41452;42.780;23.116;2023-04-28T02:21:41;6.60;;;2.60;;
55589;SDS011;41452;42.780;23.116;2023-04-28T02:24:07;4.85;;;2.30;;
55589;SDS011;41452;42.780;23.116;2023-04-28T02:26:32;7.57;;;2.20;;
55589;SDS011;41452;42.780;23.116;2023-04-28T02:28:58;8.52;;;2.33;;
55589;SDS011;41452;42.780;23.116;2023-04-28T02:31:24;4.22;;;2.38;;
55589;SDS011;41452;42.780;23.116;2023-04-28T02:33:49;5.07;;;2.58;;
55589;SDS011;41452;42.780;23.116;2023-04-28T02:36:14;8.23;;;2.25;;
55589;SDS011;41452;42.780;23.116;2023-04-28T02:38:40;4.50;;;2.50;;
55589;SDS011;41452;42.780;23.116;2023-04-28T02:41:06;6.00;;;2.35;;
55589;SDS011;41452;42.780;23.116;2023-04-28T02:43:33;3.75;;;2.30;;
55589;SDS011;41452;42.780;23.116;2023-04-28T02:46:01;3.50;;;2.33;;
55589;SDS011;41452;42.780;23.116;2023-04-28T02:48:27;4.25;;;2.70;;
55589;SDS011;41452;42.780;23.116;2023-04-28T02:50:52;7.25;;;2.75;;
55589;SDS011;41452;42.780;23.116;2023-04-28T02:53:18;3.88;;;2.28;;
55589;SDS011;41452;42.780;23.116;2023-04-28T02:55:44;4.97;;;2.42;;
55589;SDS011;41452;42.780;23.116;2023-04-28T02:58:09;3.92;;;2.15;;
55589;SDS011;41452;42.780;23.116;2023-04-28T03:00:35;6.43;;;2.60;;
55589;SDS011;41452;42.780;23.116;2023-04-28T03:03:00;3.55;;;2.00;;
55589;SDS011;41452;42.780;23.116;2023-04-28T03:05:26;5.63;;;2.03;;
55589;SDS011;41452;42.780;23.116;2023-04-28T03:07:52;3.13;;;2.15;;
55589;SDS011;41452;42.780;23.116;2023-04-28T03:10:18;4.05;;;2.42;;
55589;SDS011;41452;42.780;23.116;2023-04-28T03:12:43;3.78;;;2.30;;
55589;SDS011;41452;42.780;23.116;2023-04-28T03:15:09;5.47;;;2.65;;
55589;SDS011;41452;42.780;23.116;2023-04-28T03:17:34;6.35;;;3.13;;
55589;SDS011;41452;42.780;23.116;2023-04-28T03:20:02;4.88;;;3.03;;
55589;SDS011;41452;42.780;23.116;2023-04-28T03:22:28;4.07;;;2.45;;
55589;SDS011;41452;42.780;23.116;2023-04-28T03:24:54;4.38;;;2.60;;
55589;SDS011;41452;42.780;23.116;2023-04-28T03:27:19;4.80;;;2.67;;
55589;SDS011;41452;42.780;23.116;2023-04-28T03:29:45;4.32;;;2.50;;
55589;SDS011;41452;42.780;23.116;2023-04-28T03:32:10;3.88;;;2.42;;
55589;SDS011;41452;42.780;23.116;2023-04-28T03:34:36;6.05;;;3.28;;
55589;SDS011;41452;42.780;23.116;2023-04-28T03:37:02;5.97;;;3.58;;
55589;SDS011;41452;42.780;23.116;2023-04-28T03:39:27;12.82;;;5.20;;
55589;SDS011;41452;42.780;23.116;2023-04-28T03:41:52;9.15;;;4.70;;
55589;SDS011;41452;42.780;23.116;2023-04-28T03:44:18;15.85;;;5.35;;
55589;SDS011;41452;42.780;23.116;2023-04-28T03:46:43;13.18;;;5.40;;
55589;SDS011;41452;42.780;23.116;2023-04-28T03:49:09;11.50;;;5.03;;
55589;SDS011;41452;42.780;23.116;2023-04-28T03:51:34;13.98;;;6.18;;
55589;SDS011;41452;42.780;23.116;2023-04-28T03:53:59;17.05;;;5.68;;
55589;SDS011;41452;42.780;23.116;2023-04-28T03:56:25;9.50;;;4.63;;
55589;SDS011;41452;42.780;23.116;2023-04-28T03:58:50;13.50;;;4.18;;
55589;SDS011;41452;42.780;23.116;2023-04-28T04:01:16;9.43;;;3.90;;
55589;SDS011;41452;42.780;23.116;2023-04-28T04:03:41;6.82;;;3.42;;
55589;SDS011;41452;42.780;23.116;2023-04-28T04:06:07;6.63;;;3.38;;
55589;SDS011;41452;42.780;23.116;2023-04-28T04:08:32;8.75;;;3.55;;
55589;SDS011;41452;42.780;23.116;2023-04-28T04:10:58;11.25;;;3.20;;
55589;SDS011;41452;42.780;23.116;2023-04-28T04:13:23;8.10;;;2.92;;
55589;SDS011;41452;42.780;23.116;2023-04-28T04:15:49;5.60;;;3.33;;
55589;SDS011;41452;42.780;23.116;2023-04-28T04:18:16;6.45;;;2.80;;
55589;SDS011;41452;42.780;23.116;2023-04-28T04:20:42;5.50;;;3.38;;
55589;SDS011;41452;42.780;23.116;2023-04-28T04:23:07;5.35;;;3.38;;
55589;SDS011;41452;42.780;23.116;2023-04-28T04:25:32;12.02;;;4.43;;
55589;SDS011;41452;42.780;23.116;2023-04-28T04:27:58;5.55;;;3.58;;
55589;SDS011;41452;42.780;23.116;2023-04-28T04:30:24;5.82;;;3.13;;
55589;SDS011;41452;42.780;23.116;2023-04-28T04:32:49;7.60;;;3.30;;
55589;SDS011;41452;42.780;23.116;2023-04-28T04:35:15;6.78;;;3.47;;
55589;SDS011;41452;42.780;23.116;2023-04-28T04:37:41;12.70;;;3.88;;
55589;SDS011;41452;42.780;23.116;2023-04-28T04:40:06;6.32;;;3.80;;
55589;SDS011;41452;42.780;23.116;2023-04-28T04:42:32;5.70;;;3.45;;
55589;SDS011;41452;42.780;23.116;2023-04-28T04:44:58;8.13;;;3.70;;
55589;SDS011;41452;42.780;23.116;2023-04-28T04:47:23;10.48;;;6.30;;
55589;SDS011;41452;42.780;23.116;2023-04-28T04:49:48;7.53;;;4.80;;
55589;SDS011;41452;42.780;23.116;2023-04-28T04:52:15;9.77;;;4.20;;
55589;SDS011;41452;42.780;23.116;2023-04-28T04:54:40;5.80;;;3.85;;
55589;SDS011;41452;42.780;23.116;2023-04-28T04:57:06;11.95;;;4.07;;
55589;SDS011;41452;42.780;23.116;2023-04-28T04:59:31;5.53;;;3.25;;
55589;SDS011;41452;42.780;23.116;2023-04-28T05:01:57;10.13;;;4.13;;
55589;SDS011;41452;42.780;23.116;2023-04-28T05:04:22;5.43;;;3.10;;
55589;SDS011;41452;42.780;23.116;2023-04-28T05:06:48;5.05;;;3.15;;
55589;SDS011;41452;42.780;23.116;2023-04-28T05:09:13;5.72;;;3.20;;
55589;SDS011;41452;42.780;23.116;2023-04-28T05:11:38;5.43;;;4.10;;
55589;SDS011;41452;42.780;23.116;2023-04-28T05:14:05;6.03;;;3.28;;
55589;SDS011;41452;42.780;23.116;2023-04-28T05:16:30;5.97;;;3.28;;
55589;SDS011;41452;42.780;23.116;2023-04-28T05:18:56;5.75;;;3.03;;
55589;SDS011;41452;42.780;23.116;2023-04-28T05:21:21;4.55;;;3.00;;
55589;SDS011;41452;42.780;23.116;2023-04-28T05:23:46;8.00;;;3.22;;
55589;SDS011;41452;42.780;23.116;2023-04-28T05:26:12;6.85;;;3.30;;
55589;SDS011;41452;42.780;23.116;2023-04-28T05:28:38;5.70;;;3.65;;
55589;SDS011;41452;42.780;23.116;2023-04-28T05:31:07;6.50;;;3.45;;
55589;SDS011;41452;42.780;23.116;2023-04-28T05:33:32;6.55;;;4.20;;
55589;SDS011;41452;42.780;23.116;2023-04-28T05:35:58;5.47;;;3.65;;
55589;SDS011;41452;42.780;23.116;2023-04-28T05:38:23;6.82;;;3.38;;
55589;SDS011;41452;42.780;23.116;2023-04-28T05:40:49;4.47;;;2.80;;
55589;SDS011;41452;42.780;23.116;2023-04-28T05:43:15;6.30;;;3.45;;
55589;SDS011;41452;42.780;23.116;2023-04-28T05:45:40;7.30;;;4.15;;
55589;SDS011;41452;42.780;23.116;2023-04-28T05:48:05;6.43;;;3.47;;
55589;SDS011;41452;42.780;23.116;2023-04-28T05:50:31;10.65;;;3.92;;
55589;SDS011;41452;42.780;23.116;2023-04-28T05:52:56;5.75;;;3.67;;
55589;SDS011;41452;42.780;23.116;2023-04-28T05:55:22;6.68;;;3.40;;
55589;SDS011;41452;42.780;23.116;2023-04-28T05:57:47;6.15;;;2.95;;
55589;SDS011;41452;42.780;23.116;2023-04-28T06:00:13;5.07;;;2.92;;
55589;SDS011;41452;42.780;23.116;2023-04-28T06:02:38;5.57;;;2.92;;
55589;SDS011;41452;42.780;23.116;2023-04-28T06:05:04;5.90;;;2.47;;
55589;SDS011;41452;42.780;23.116;2023-04-28T06:07:30;10.80;;;3.47;;
55589;SDS011;41452;42.780;23.116;2023-04-28T06:09:55;6.85;;;3.05;;
55589;SDS011;41452;42.780;23.116;2023-04-28T06:12:20;4.93;;;2.58;;
55589;SDS011;41452;42.780;23.116;2023-04-28T06:14:46;6.80;;;2.75;;
55589;SDS011;41452;42.780;23.116;2023-04-28T06:17:11;5.30;;;2.63;;
55589;SDS011;41452;42.780;23.116;2023-04-28T06:19:36;10.45;;;2.53;;
55589;SDS011;41452;42.780;23.116;2023-04-28T06:22:02;8.75;;;3.13;;
55589;SDS011;41452;42.780;23.116;2023-04-28T06:24:27;6.22;;;2.95;;
55589;SDS011;41452;42.780;23.116;2023-04-28T06:26:53;6.82;;;3.05;;
55589;SDS011;41452;42.780;23.116;2023-04-28T06:29:18;5.25;;;2.67;;
55589;SDS011;41452;42.780;23.116;2023-04-28T06:31:44;12.45;;;3.50;;
55589;SDS011;41452;42.780;23.116;2023-04-28T06:34:10;4.43;;;2.70;;
55589;SDS011;41452;42.780;23.116;2023-04-28T06:36:35;5.80;;;2.40;;
55589;SDS011;41452;42.780;23.116;2023-04-28T06:39:01;4.93;;;2.55;;
55589;SDS011;41452;42.780;23.116;2023-04-28T06:41:26;7.53;;;2.42;;
55589;SDS011;41452;42.780;23.116;2023-04-28T06:43:53;6.38;;;3.08;;
55589;SDS011;41452;42.780;23.116;2023-04-28T06:46:18;3.20;;;2.17;;
55589;SDS011;41452;42.780;23.116;2023-04-28T06:48:44;10.63;;;2.50;;
55589;SDS011;41452;42.780;23.116;2023-04-28T06:51:09;4.70;;;2.30;;
55589;SDS011;41452;42.780;23.116;2023-04-28T06:53:35;4.78;;;2.10;;
55589;SDS011;41452;42.780;23.116;2023-04-28T06:56:01;5.03;;;3.75;;
55589;SDS011;41452;42.780;23.116;2023-04-28T06:58:26;6.70;;;2.83;;
55589;SDS011;41452;42.780;23.116;2023-04-28T07:00:52;11.85;;;2.97;;
55589;SDS011;41452;42.780;23.116;2023-04-28T07:03:18;4.32;;;2.30;;
55589;SDS011;41452;42.780;23.116;2023-04-28T07:05:45;6.63;;;3.00;;
55589;SDS011;41452;42.780;23.116;2023-04-28T07:08:10;2.92;;;2.05;;
55589;SDS011;41452;42.780;23.116;2023-04-28T07:10:35;3.03;;;2.00;;
55589;SDS011;41452;42.780;23.116;2023-04-28T07:13:01;6.40;;;2.60;;
55589;SDS011;41452;42.780;23.116;2023-04-28T07:15:26;8.77;;;2.30;;
55589;SDS011;41452;42.780;23.116;2023-04-28T07:17:52;4.95;;;2.30;;
55589;SDS011;41452;42.780;23.116;2023-04-28T07:20:18;7.25;;;2.58;;
55589;SDS011;41452;42.780;23.116;2023-04-28T07:22:43;7.32;;;2.50;;
55589;SDS011;41452;42.780;23.116;2023-04-28T07:25:08;7.25;;;2.60;;
55589;SDS011;41452;42.780;23.116;2023-04-28T07:27:34;8.50;;;2.45;;
55589;SDS011;41452;42.780;23.116;2023-04-28T07:29:59;5.43;;;1.83;;
55589;SDS011;41452;42.780;23.116;2023-04-28T07:32:25;4.10;;;2.40;;
55589;SDS011;41452;42.780;23.116;2023-04-28T07:34:50;3.95;;;2.35;;
55589;SDS011;41452;42.780;23.116;2023-04-28T07:37:16;3.45;;;1.90;;
55589;SDS011;41452;42.780;23.116;2023-04-28T07:39:42;3.42;;;2.05;;
55589;SDS011;41452;42.780;23.116;2023-04-28T07:42:07;6.75;;;2.22;;
55589;SDS011;41452;42.780;23.116;2023-04-28T07:44:33;8.68;;;1.90;;
55589;SDS011;41452;42.780;23.116;2023-04-28T07:46:59;3.97;;;2.00;;
55589;SDS011;41452;42.780;23.116;2023-04-28T07:49:26;5.72;;;2.08;;
55589;SDS011;41452;42.780;23.116;2023-04-28T07:51:52;2.47;;;1.52;;
55589;SDS011;41452;42.780;23.116;2023-04-28T07:54:19;5.35;;;2.00;;
55589;SDS011;41452;42.780;23.116;2023-04-28T07:56:45;6.53;;;2.15;;
55589;SDS011;41452;42.780;23.116;2023-04-28T07:59:10;4.50;;;1.98;;
55589;SDS011;41452;42.780;23.116;2023-04-28T08:01:35;5.07;;;1.73;;
55589;SDS011;41452;42.780;23.116;2023-04-28T08:04:01;3.80;;;1.92;;
55589;SDS011;41452;42.780;23.116;2023-04-28T08:06:26;3.22;;;1.80;;
55589;SDS011;41452;42.780;23.116;2023-04-28T08:08:52;3.38;;;1.98;;
55589;SDS011;41452;42.780;23.116;2023-04-28T08:11:17;2.67;;;1.65;;
55589;SDS011;41452;42.780;23.116;2023-04-28T08:13:42;7.28;;;2.20;;
55589;SDS011;41452;42.780;23.116;2023-04-28T08:16:08;6.82;;;2.03;;
55589;SDS011;41452;42.780;23.116;2023-04-28T08:18:33;3.30;;;1.60;;
55589;SDS011;41452;42.780;23.116;2023-04-28T08:20:59;4.45;;;2.15;;
55589;SDS011;41452;42.780;23.116;2023-04-28T08:23:24;4.32;;;1.92;;
55589;SDS011;41452;42.780;23.116;2023-04-28T08:25:52;3.65;;;1.83;;
55589;SDS011;41452;42.780;23.116;2023-04-28T08:28:18;6.22;;;2.15;;
55589;SDS011;41452;42.780;23.116;2023-04-28T08:30:43;4.05;;;2.15;;
55589;SDS011;41452;42.780;23.116;2023-04-28T08:33:08;3.53;;;2.20;;
55589;SDS011;41452;42.780;23.116;2023-04-28T08:35:34;3.40;;;2.20;;
55589;SDS011;41452;42.780;23.116;2023-04-28T08:37:59;3.22;;;2.03;;
55589;SDS011;41452;42.780;23.116;2023-04-28T08:40:25;4.03;;;1.83;;
55589;SDS011;41452;42.780;23.116;2023-04-28T08:42:50;5.18;;;1.88;;
55589;SDS011;41452;42.780;23.116;2023-04-28T08:45:16;7.00;;;2.00;;
55589;SDS011;41452;42.780;23.116;2023-04-28T08:47:42;2.50;;;1.70;;
55589;SDS011;41452;42.780;23.116;2023-04-28T08:50:12;3.17;;;1.98;;
55589;SDS011;41452;42.780;23.116;2023-04-28T08:52:38;3.75;;;1.80;;
55589;SDS011;41452;42.780;23.116;2023-04-28T08:55:06;6.63;;;1.92;;
55589;SDS011;41452;42.780;23.116;2023-04-28T08:57:37;7.82;;;2.42;;
55589;SDS011;41452;42.780;23.116;2023-04-28T09:00:07;4.50;;;1.73;;
55589;SDS011;41452;42.780;23.116;2023-04-28T09:02:32;6.10;;;2.00;;
55589;SDS011;41452;42.780;23.116;2023-04-28T09:04:58;4.30;;;2.20;;
55589;SDS011;41452;42.780;23.116;2023-04-28T09:07:23;5.90;;;1.92;;
55589;SDS011;41452;42.780;23.116;2023-04-28T09:09:49;3.85;;;1.42;;
55589;SDS011;41452;42.780;23.116;2023-04-28T09:12:14;7.13;;;2.58;;
55589;SDS011;41452;42.780;23.116;2023-04-28T09:14:40;3.67;;;1.60;;
55589;SDS011;41452;42.780;23.116;2023-04-28T09:17:12;3.55;;;1.52;;
55589;SDS011;41452;42.780;23.116;2023-04-28T09:19:38;6.88;;;1.73;;
55589;SDS011;41452;42.780;23.116;2023-04-28T09:22:07;8.00;;;1.83;;
55589;SDS011;41452;42.780;23.116;2023-04-28T09:24:33;7.13;;;1.88;;
55589;SDS011;41452;42.780;23.116;2023-04-28T09:27:01;5.57;;;1.83;;
55589;SDS011;41452;42.780;23.116;2023-04-28T09:29:29;6.00;;;1.60;;
55589;SDS011;41452;42.780;23.116;2023-04-28T09:32:11;3.60;;;1.20;;
55589;SDS011;41452;42.780;23.116;2023-04-28T09:34:45;6.22;;;1.75;;
55589;SDS011;41452;42.780;23.116;2023-04-28T09:37:20;4.30;;;1.40;;
55589;SDS011;41452;42.780;23.116;2023-04-28T09:39:47;4.07;;;1.90;;
55589;SDS011;41452;42.780;23.116;2023-04-28T09:45:03;2.88;;;1.70;;
55589;SDS011;41452;42.780;23.116;2023-04-28T09:47:30;4.55;;;1.42;;
55589;SDS011;41452;42.780;23.116;2023-04-28T09:49:59;4.28;;;1.90;;
55589;SDS011;41452;42.780;23.116;2023-04-28T09:52:33;3.00;;;1.30;;
55589;SDS011;41452;42.780;23.116;2023-04-28T09:55:00;5.68;;;1.65;;
55589;SDS011;41452;42.780;23.116;2023-04-28T09:57:26;5.53;;;1.92;;
55589;SDS011;41452;42.780;23.116;2023-04-28T09:59:56;5.70;;;1.60;;
55589;SDS011;41452;42.780;23.116;2023-04-28T10:02:22;6.38;;;1.92;;
55589;SDS011;41452;42.780;23.116;2023-04-28T10:04:49;3.08;;;1.63;;
55589;SDS011;41452;42.780;23.116;2023-04-28T10:07:16;6.20;;;2.05;;
55589;SDS011;41452;42.780;23.116;2023-04-28T10:09:44;6.47;;;1.95;;
55589;SDS011;41452;42.780;23.116;2023-04-28T10:12:20;5.57;;;1.75;;
55589;SDS011;41452;42.780;23.116;2023-04-28T10:14:49;2.92;;;1.38;;
55589;SDS011;41452;42.780;23.116;2023-04-28T10:17:19;3.88;;;1.60;;
55589;SDS011;41452;42.780;23.116;2023-04-28T10:19:46;4.10;;;1.42;;
55589;SDS011;41452;42.780;23.116;2023-04-28T10:27:38;2.53;;;1.67;;
55589;SDS011;41452;42.780;23.116;2023-04-28T10:30:15;5.75;;;1.70;;
55589;SDS011;41452;42.780;23.116;2023-04-28T10:32:42;4.85;;;1.45;;
55589;SDS011;41452;42.780;23.116;2023-04-28T10:40:30;2.85;;;1.33;;
55589;SDS011;41452;42.780;23.116;2023-04-28T10:42:59;5.43;;;1.45;;
55589;SDS011;41452;42.780;23.116;2023-04-28T10:48:19;6.30;;;1.55;;
55589;SDS011;41452;42.780;23.116;2023-04-28T10:51:27;2.45;;;1.20;;
55589;SDS011;41452;42.780;23.116;2023-04-28T10:56:12;3.72;;;1.40;;
55589;SDS011;41452;42.780;23.116;2023-04-28T10:58:39;3.63;;;1.50;;
55589;SDS011;41452;42.780;23.116;2023-04-28T11:03:56;3.65;;;1.55;;
55589;SDS011;41452;42.780;23.116;2023-04-28T11:16:58;10.93;;;2.00;;
55589;SDS011;41452;42.780;23.116;2023-04-28T11:19:31;3.10;;;1.50;;
55589;SDS011;41452;42.780;23.116;2023-04-28T11:21:59;2.53;;;1.40;;
55589;SDS011;41452;42.780;23.116;2023-04-28T11:24:26;6.72;;;1.83;;
55589;SDS011;41452;42.780;23.116;2023-04-28T11:26:53;3.22;;;1.17;;
55589;SDS011;41452;42.780;23.116;2023-04-28T11:29:32;4.38;;;1.58;;
55589;SDS011;41452;42.780;23.116;2023-04-28T11:31:57;3.03;;;1.50;;
55589;SDS011;41452;42.780;23.116;2023-04-28T11:34:23;6.72;;;1.80;;
55589;SDS011;41452;42.780;23.116;2023-04-28T11:36:49;2.00;;;1.42;;
55589;SDS011;41452;42.780;23.116;2023-04-28T11:39:15;5.22;;;1.60;;
55589;SDS011;41452;42.780;23.116;2023-04-28T11:41:41;2.90;;;1.55;;
55589;SDS011;41452;42.780;23.116;2023-04-28T11:44:12;7.53;;;1.40;;
55589;SDS011;41452;42.780;23.116;2023-04-28T11:46:48;5.80;;;1.88;;
55589;SDS011;41452;42.780;23.116;2023-04-28T11:49:21;2.70;;;1.20;;
55589;SDS011;41452;42.780;23.116;2023-04-28T11:51:52;4.30;;;1.65;;
55589;SDS011;41452;42.780;23.116;2023-04-28T11:54:20;3.88;;;1.95;;
55589;SDS011;41452;42.780;23.116;2023-04-28T11:56:46;4.72;;;1.48;;
55589;SDS011;41452;42.780;23.116;2023-04-28T11:59:11;3.53;;;1.42;;
55589;SDS011;41452;42.780;23.116;2023-04-28T12:01:44;5.50;;;1.20;;
55589;SDS011;41452;42.780;23.116;2023-04-28T12:04:13;2.40;;;1.20;;
55589;SDS011;41452;42.780;23.116;2023-04-28T12:07:00;6.78;;;1.45;;
55589;SDS011;41452;42.780;23.116;2023-04-28T12:09:35;6.13;;;1.40;;
55589;SDS011;41452;42.780;23.116;2023-04-28T12:12:05;5.68;;;1.67;;
55589;SDS011;41452;42.780;23.116;2023-04-28T12:14:32;3.03;;;1.27;;
55589;SDS011;41452;42.780;23.116;2023-04-28T12:19:57;5.88;;;1.42;;
55589;SDS011;41452;42.780;23.116;2023-04-28T12:22:24;5.03;;;1.48;;
55589;SDS011;41452;42.780;23.116;2023-04-28T12:25:03;3.83;;;1.40;;
55589;SDS011;41452;42.780;23.116;2023-04-28T12:27:33;4.45;;;1.40;;
55589;SDS011;41452;42.780;23.116;2023-04-28T12:30:00;4.43;;;2.03;;
55589;SDS011;41452;42.780;23.116;2023-04-28T12:35:05;2.10;;;1.35;;
55589;SDS011;41452;42.780;23.116;2023-04-28T12:37:31;5.25;;;1.42;;
55589;SDS011;41452;42.780;23.116;2023-04-28T12:39:57;2.65;;;1.20;;
55589;SDS011;41452;42.780;23.116;2023-04-28T12:42:22;3.33;;;1.30;;
55589;SDS011;41452;42.780;23.116;2023-04-28T12:44:48;7.38;;;1.60;;
55589;SDS011;41452;42.780;23.116;2023-04-28T12:47:14;3.47;;;1.75;;
55589;SDS011;41452;42.780;23.116;2023-04-28T12:49:42;5.97;;;1.98;;
55589;SDS011;41452;42.780;23.116;2023-04-28T12:52:08;3.40;;;1.38;;
55589;SDS011;41452;42.780;23.116;2023-04-28T12:54:34;5.53;;;2.08;;
55589;SDS011;41452;42.780;23.116;2023-04-28T12:57:00;3.45;;;1.33;;
55589;SDS011;41452;42.780;23.116;2023-04-28T12:59:27;5.57;;;1.25;;
55589;SDS011;41452;42.780;23.116;2023-04-28T13:01:53;4.25;;;1.40;;
55589;SDS011;41452;42.780;23.116;2023-04-28T13:04:19;3.90;;;1.13;;
55589;SDS011;41452;42.780;23.116;2023-04-28T13:06:45;4.85;;;1.50;;
55589;SDS011;41452;42.780;23.116;2023-04-28T13:09:11;4.75;;;1.50;;
55589;SDS011;41452;42.780;23.116;2023-04-28T13:11:37;7.15;;;1.95;;
55589;SDS011;41452;42.780;23.116;2023-04-28T13:14:03;3.75;;;1.30;;
55589;SDS011;41452;42.780;23.116;2023-04-28T13:16:29;2.67;;;1.00;;
55589;SDS011;41452;42.780;23.116;2023-04-28T13:18:55;3.00;;;1.40;;
55589;SDS011;41452;42.780;23.116;2023-04-28T13:21:22;2.88;;;1.50;;
55589;SDS011;41452;42.780;23.116;2023-04-28T13:23:49;4.05;;;1.77;;
55589;SDS011;41452;42.780;23.116;2023-04-28T13:26:14;3.10;;;1.27;;
55589;SDS011;41452;42.780;23.116;2023-04-28T13:28:39;3.60;;;1.40;;
55589;SDS011;41452;42.780;23.116;2023-04-28T13:31:05;8.75;;;1.52;;
55589;SDS011;41452;42.780;23.116;2023-04-28T13:33:31;5.53;;;1.42;;
55589;SDS011;41452;42.780;23.116;2023-04-28T13:35:57;4.35;;;1.50;;
55589;SDS011;41452;42.780;23.116;2023-04-28T13:38:23;4.75;;;1.30;;
55589;SDS011;41452;42.780;23.116;2023-04-28T13:40:49;3.75;;;1.40;;
55589;SDS011;41452;42.780;23.116;2023-04-28T13:43:15;5.60;;;1.50;;
55589;SDS011;41452;42.780;23.116;2023-04-28T13:45:40;2.10;;;1.20;;
55589;SDS011;41452;42.780;23.116;2023-04-28T13:48:06;3.75;;;1.50;;
55589;SDS011;41452;42.780;23.116;2023-04-28T13:50:31;2.72;;;1.38;;
55589;SDS011;41452;42.780;23.116;2023-04-28T13:52:57;3.05;;;1.23;;
55589;SDS011;41452;42.780;23.116;2023-04-28T13:55:22;7.22;;;1.20;;
55589;SDS011;41452;42.780;23.116;2023-04-28T13:57:52;5.18;;;1.30;;
55589;SDS011;41452;42.780;23.116;2023-04-28T14:00:18;4.60;;;1.58;;
55589;SDS011;41452;42.780;23.116;2023-04-28T14:02:44;3.58;;;1.40;;
55589;SDS011;41452;42.780;23.116;2023-04-28T14:05:10;3.35;;;1.30;;
55589;SDS011;41452;42.780;23.116;2023-04-28T14:07:36;6.18;;;1.35;;
55589;SDS011;41452;42.780;23.116;2023-04-28T14:10:02;2.60;;;1.30;;
55589;SDS011;41452;42.780;23.116;2023-04-28T14:12:28;6.30;;;1.38;;
55589;SDS011;41452;42.780;23.116;2023-04-28T14:14:53;5.25;;;1.55;;
55589;SDS011;41452;42.780;23.116;2023-04-28T14:17:19;6.63;;;1.40;;
55589;SDS011;41452;42.780;23.116;2023-04-28T14:19:44;7.13;;;1.55;;
55589;SDS011;41452;42.780;23.116;2023-04-28T14:22:10;4.40;;;1.33;;
55589;SDS011;41452;42.780;23.116;2023-04-28T14:24:36;5.20;;;1.60;;
55589;SDS011;41452;42.780;23.116;2023-04-28T14:27:01;2.55;;;1.30;;
55589;SDS011;41452;42.780;23.116;2023-04-28T14:29:26;5.75;;;1.40;;
55589;SDS011;41452;42.780;23.116;2023-04-28T14:31:52;3.70;;;1.35;;
55589;SDS011;41452;42.780;23.116;2023-04-28T14:34:17;7.10;;;1.77;;
55589;SDS011;41452;42.780;23.116;2023-04-28T14:36:43;3.78;;;1.70;;
55589;SDS011;41452;42.780;23.116;2023-04-28T14:39:08;5.72;;;1.63;;
55589;SDS011;41452;42.780;23.116;2023-04-28T14:41:33;3.03;;;1.52;;
55589;SDS011;41452;42.780;23.116;2023-04-28T14:43:59;3.33;;;1.83;;
55589;SDS011;41452;42.780;23.116;2023-04-28T14:46:24;3.08;;;1.52;;
55589;SDS011;41452;42.780;23.116;2023-04-28T14:48:50;4.15;;;1.45;;
55589;SDS011;41452;42.780;23.116;2023-04-28T14:51:17;2.50;;;1.23;;
55589;SDS011;41452;42.780;23.116;2023-04-28T14:53:42;2.55;;;1.42;;
55589;SDS011;41452;42.780;23.116;2023-04-28T14:56:08;4.35;;;1.40;;
55589;SDS011;41452;42.780;23.116;2023-04-28T14:58:33;3.97;;;1.60;;
55589;SDS011;41452;42.780;23.116;2023-04-28T15:00:59;5.65;;;2.50;;
55589;SDS011;41452;42.780;23.116;2023-04-28T15:03:25;5.53;;;3.03;;
55589;SDS011;41452;42.780;23.116;2023-04-28T15:05:51;3.63;;;1.52;;